Preview of NWS' New Version of Forecast
This preview is not operational and should not be used for support decisions.

Terminal Aerodrome Forecast (TAF)

Issued by National Weather Service (NWS)

                            
000
FTAK31 PAFC 162331
TAFADL
TAF
PADL 162331Z 1700/1724 14007KT P6SM SKC
     FM171800 33011KT P6SM SKC=